createdAt,value
2022-10-06T00:00:31.214Z,85.39
2022-10-06T00:02:35.854Z,86.21
2022-10-06T00:04:39.343Z,85.60
2022-10-06T00:06:42.739Z,84.63
2022-10-06T00:08:47.472Z,84.92
2022-10-06T00:10:50.845Z,84.28
2022-10-06T00:12:54.317Z,84.59
2022-10-06T00:14:57.630Z,83.40
2022-10-06T00:17:02.533Z,83.98
2022-10-06T00:19:06.150Z,83.42
2022-10-06T00:21:09.539Z,83.75
2022-10-06T00:23:12.910Z,83.99
2022-10-06T00:25:19.534Z,83.70
2022-10-06T00:27:22.846Z,84.43
2022-10-06T00:29:26.179Z,85.42
2022-10-06T00:31:29.663Z,85.93
2022-10-06T00:33:34.385Z,85.93
2022-10-06T00:35:37.775Z,85.57
2022-10-06T00:37:41.111Z,85.85
2022-10-06T00:39:44.488Z,86.06
2022-10-06T00:41:47.900Z,85.85
2022-10-06T00:43:53.287Z,85.87
2022-10-06T00:45:56.751Z,86.06
2022-10-06T00:48:05.540Z,86.15
2022-10-06T00:50:12.778Z,86.05
2022-10-06T00:52:19.779Z,85.59
2022-10-06T00:54:23.143Z,85.88
2022-10-06T00:56:27.614Z,85.84
2022-10-06T00:58:31.723Z,85.64
2022-10-06T01:00:35.381Z,85.21
2022-10-06T01:02:43.598Z,84.66
2022-10-06T01:04:50.968Z,84.42
2022-10-06T01:06:58.664Z,83.86
2022-10-06T01:09:02.042Z,83.77
2022-10-06T01:11:05.377Z,83.99
2022-10-06T01:13:13.269Z,83.39
2022-10-06T01:15:17.558Z,83.78
2022-10-06T01:17:26.310Z,83.80
2022-10-06T01:19:40.556Z,82.87
2022-10-06T01:21:48.499Z,83.22
2022-10-06T01:23:53.684Z,82.26
2022-10-06T01:25:58.581Z,82.16
2022-10-06T01:28:03.910Z,82.49
2022-10-06T01:30:10.417Z,82.46
2022-10-06T01:32:15.783Z,82.35
2022-10-06T01:34:19.273Z,81.79
2022-10-06T01:36:23.176Z,82.05
2022-10-06T01:38:28.564Z,82.25
2022-10-06T01:40:38.669Z,81.71
2022-10-06T01:42:42.064Z,81.31
2022-10-06T01:44:45.437Z,81.64
2022-10-06T01:46:49.538Z,81.90
2022-10-06T01:48:53.419Z,81.61
2022-10-06T01:50:56.722Z,81.70
2022-10-06T01:53:00.085Z,81.38
2022-10-06T01:55:03.643Z,80.95
2022-10-06T01:57:09.531Z,80.20
2022-10-06T01:59:14.281Z,80.65
2022-10-06T02:01:18.121Z,81.39
2022-10-06T02:03:21.682Z,81.51
2022-10-06T02:05:24.996Z,81.44
2022-10-06T02:07:29.820Z,81.13
2022-10-06T02:09:33.195Z,81.65
2022-10-06T02:11:40.987Z,81.82
2022-10-06T02:13:45.821Z,81.67
2022-10-06T02:15:49.275Z,80.96
2022-10-06T02:17:52.776Z,81.81
2022-10-06T02:19:56.582Z,80.84
2022-10-06T02:21:59.927Z,80.56
2022-10-06T02:24:03.306Z,80.29
2022-10-06T02:26:07.453Z,80.33
2022-10-06T02:28:11.838Z,79.41
2022-10-06T02:30:17.539Z,79.19
2022-10-06T02:32:22.904Z,79.03
2022-10-06T02:34:26.705Z,78.65
2022-10-06T02:36:30.452Z,79.79
2022-10-06T02:38:34.211Z,78.93
2022-10-06T02:40:38.699Z,79.95
2022-10-06T02:42:42.062Z,79.49
2022-10-06T02:44:45.792Z,80.79
2022-10-06T02:46:50.644Z,80.17
2022-10-06T02:48:54.621Z,79.89
2022-10-06T02:50:59.116Z,79.92
2022-10-06T02:53:02.463Z,81.19
2022-10-06T02:55:08.009Z,80.22
2022-10-06T02:57:11.290Z,79.93
2022-10-06T02:59:15.441Z,80.94
2022-10-06T03:01:21.786Z,80.47
2022-10-06T03:03:26.529Z,80.26
2022-10-06T03:05:30.436Z,80.67
2022-10-06T03:07:33.949Z,81.80
2022-10-06T03:09:37.335Z,81.67
2022-10-06T03:11:43.029Z,80.93
2022-10-06T03:13:52.495Z,80.98
2022-10-06T03:15:55.835Z,81.28
2022-10-06T03:17:59.451Z,80.94
2022-10-06T03:20:04.464Z,80.82
2022-10-06T03:22:10.500Z,81.51
2022-10-06T03:24:20.209Z,81.57
2022-10-06T03:26:31.980Z,81.38
2022-10-06T03:28:35.812Z,80.73
2022-10-06T03:30:39.299Z,80.54
2022-10-06T03:32:42.688Z,80.54
2022-10-06T03:34:47.704Z,80.06
2022-10-06T03:36:53.494Z,79.98
2022-10-06T03:38:59.797Z,79.70
2022-10-06T03:41:05.417Z,79.80
2022-10-06T03:43:10.676Z,79.05
2022-10-06T03:45:14.200Z,78.54
2022-10-06T03:47:19.119Z,78.53
2022-10-06T03:49:23.309Z,78.58
2022-10-06T03:51:29.694Z,78.94
2022-10-06T03:53:36.136Z,79.01
2022-10-06T03:55:39.745Z,78.48
2022-10-06T03:57:43.083Z,78.47
2022-10-06T03:59:46.847Z,78.20
2022-10-06T04:01:52.944Z,78.02
2022-10-06T04:04:02.545Z,77.92
2022-10-06T04:06:08.306Z,78.32
2022-10-06T04:08:11.621Z,78.11
2022-10-06T04:10:16.415Z,77.70
2022-10-06T04:12:19.837Z,77.21
2022-10-06T04:14:23.155Z,77.23
2022-10-06T04:16:29.489Z,77.06
2022-10-06T04:18:33.380Z,77.24
2022-10-06T04:20:37.302Z,76.66
2022-10-06T04:22:40.963Z,77.27
2022-10-06T04:24:44.689Z,76.55
2022-10-06T04:26:50.079Z,76.53
2022-10-06T04:28:55.071Z,76.20
2022-10-06T04:30:58.990Z,76.01
2022-10-06T04:33:02.427Z,76.34
2022-10-06T04:35:06.621Z,76.01
2022-10-06T04:37:10.744Z,76.22
2022-10-06T04:39:15.208Z,76.69
2022-10-06T04:41:21.759Z,76.09
2022-10-06T04:43:27.895Z,76.55
2022-10-06T04:45:31.383Z,75.93
2022-10-06T04:47:34.974Z,76.20
2022-10-06T04:49:38.396Z,75.98
2022-10-06T04:51:41.721Z,76.00
2022-10-06T04:53:46.024Z,76.02
2022-10-06T04:55:59.764Z,75.57
2022-10-06T04:58:03.425Z,76.35
2022-10-06T05:00:25.151Z,76.84
2022-10-06T05:02:30.025Z,76.17
2022-10-06T05:04:34.139Z,76.35
2022-10-06T05:06:39.726Z,76.00
2022-10-06T05:08:43.251Z,75.97
2022-10-06T05:10:46.703Z,75.87
2022-10-06T05:12:50.103Z,76.03
2022-10-06T05:14:53.446Z,75.98
2022-10-06T05:16:58.164Z,75.93
2022-10-06T05:19:02.305Z,76.37
2022-10-06T05:21:08.279Z,76.10
2022-10-06T05:23:11.598Z,76.10
2022-10-06T05:25:14.996Z,76.18
2022-10-06T05:27:18.397Z,75.48
2022-10-06T05:29:21.710Z,75.51
2022-10-06T05:31:27.855Z,76.06
2022-10-06T05:33:35.482Z,75.09
2022-10-06T05:35:39.810Z,75.35
2022-10-06T05:37:43.151Z,74.94
2022-10-06T05:39:46.666Z,75.05
2022-10-06T05:41:50.140Z,74.75
2022-10-06T05:43:54.020Z,74.79
2022-10-06T05:45:58.764Z,74.96
2022-10-06T05:48:02.337Z,74.99
2022-10-06T05:50:08.132Z,74.66
2022-10-06T05:52:11.680Z,75.00
2022-10-06T05:54:15.230Z,75.15
2022-10-06T05:56:22.433Z,75.25
2022-10-06T05:58:25.767Z,75.07
2022-10-06T06:00:29.092Z,74.60
2022-10-06T06:02:32.514Z,74.85
2022-10-06T06:04:35.903Z,75.42
2022-10-06T06:06:42.758Z,75.00
2022-10-06T06:08:53.692Z,74.55
2022-10-06T06:11:05.513Z,74.69
2022-10-06T06:13:08.870Z,74.59
2022-10-06T06:15:36.803Z,74.85
2022-10-06T06:17:40.122Z,73.88
2022-10-06T06:19:43.627Z,74.04
2022-10-06T06:21:48.656Z,74.58
2022-10-06T06:23:51.948Z,75.09
2022-10-06T06:26:02.420Z,74.70
2022-10-06T06:28:07.132Z,74.80
2022-10-06T06:30:11.695Z,74.95
2022-10-06T06:32:16.422Z,74.99
2022-10-06T06:34:21.295Z,74.26
2022-10-06T06:36:26.833Z,73.83
2022-10-06T06:38:32.983Z,74.07
2022-10-06T06:40:41.356Z,74.59
2022-10-06T06:42:44.820Z,74.66
2022-10-06T06:44:54.196Z,74.85
2022-10-06T06:47:11.877Z,74.42
2022-10-06T06:49:15.446Z,74.40
2022-10-06T06:51:24.177Z,74.32
2022-10-06T06:53:27.788Z,73.65
2022-10-06T06:55:35.639Z,73.70
2022-10-06T06:57:38.976Z,73.83
2022-10-06T06:59:43.328Z,72.92
2022-10-06T07:01:48.842Z,73.80
2022-10-06T07:03:59.611Z,73.13
2022-10-06T07:06:09.841Z,73.77
2022-10-06T07:08:15.961Z,73.38
2022-10-06T07:10:19.838Z,73.07
2022-10-06T07:12:25.446Z,73.00
2022-10-06T07:14:34.170Z,73.32
2022-10-06T07:16:57.061Z,72.97
2022-10-06T07:19:24.502Z,72.64
2022-10-06T07:21:46.212Z,72.04
2022-10-06T07:24:18.287Z,71.45
2022-10-06T07:26:21.729Z,70.94
2022-10-06T07:28:30.596Z,71.57
2022-10-06T07:30:39.814Z,71.40
2022-10-06T07:32:51.333Z,71.37
2022-10-06T07:34:55.138Z,71.73
2022-10-06T07:37:02.724Z,71.22
2022-10-06T07:39:10.466Z,71.11
2022-10-06T07:41:19.355Z,70.50
2022-10-06T07:43:33.614Z,70.76
2022-10-06T07:45:41.412Z,70.79
2022-10-06T07:47:58.884Z,69.91
2022-10-06T07:50:02.713Z,70.47
2022-10-06T07:52:06.375Z,70.85
2022-10-06T07:54:09.862Z,71.06
2022-10-06T07:56:35.791Z,71.25
2022-10-06T07:58:40.726Z,71.32
2022-10-06T08:00:44.452Z,70.95
2022-10-06T08:02:47.874Z,70.54
2022-10-06T08:04:51.496Z,70.05
2022-10-06T08:06:58.468Z,69.58
2022-10-06T08:09:01.881Z,69.74
2022-10-06T08:11:08.175Z,69.87
2022-10-06T08:13:11.665Z,69.55
2022-10-06T08:15:16.505Z,70.04
2022-10-06T08:17:19.858Z,70.01
2022-10-06T08:19:23.116Z,70.31
2022-10-06T08:21:28.872Z,69.97
2022-10-06T08:23:32.671Z,69.51
2022-10-06T08:25:42.584Z,69.26
2022-10-06T08:27:49.011Z,69.35
2022-10-06T08:29:56.383Z,69.26
2022-10-06T08:32:01.753Z,69.61
2022-10-06T08:34:11.819Z,68.55
2022-10-06T08:36:17.825Z,68.94
2022-10-06T08:38:21.777Z,69.04
2022-10-06T08:40:26.907Z,68.99
2022-10-06T08:42:38.202Z,68.83
2022-10-06T08:44:45.533Z,69.32
2022-10-06T08:46:54.988Z,69.04
2022-10-06T08:48:59.831Z,69.30
2022-10-06T08:51:18.616Z,68.93
2022-10-06T08:53:29.045Z,68.42
2022-10-06T08:55:38.545Z,68.50
2022-10-06T08:57:51.111Z,68.33
2022-10-06T08:59:54.640Z,67.32
2022-10-06T09:01:58.265Z,66.92
2022-10-06T09:04:07.248Z,66.81
2022-10-06T09:06:23.194Z,66.87
2022-10-06T09:08:39.693Z,66.60
2022-10-06T09:10:52.078Z,67.18
2022-10-06T09:12:58.650Z,66.96
2022-10-06T09:15:16.399Z,67.25
2022-10-06T09:17:26.176Z,67.14
2022-10-06T09:19:38.545Z,66.90
2022-10-06T09:21:46.498Z,67.46
2022-10-06T09:23:56.969Z,66.94
2022-10-06T09:26:01.246Z,66.14
2022-10-06T09:28:09.475Z,66.15
2022-10-06T09:30:13.463Z,64.75
2022-10-06T09:32:17.799Z,65.01
2022-10-06T09:34:27.035Z,64.71
2022-10-06T09:36:32.330Z,64.37
2022-10-06T09:38:48.255Z,64.04
2022-10-06T09:40:53.714Z,63.26
2022-10-06T09:42:57.263Z,62.75
2022-10-06T09:45:02.581Z,62.73
2022-10-06T09:47:25.146Z,62.65
2022-10-06T09:49:31.418Z,62.13
2022-10-06T09:51:36.444Z,60.90
2022-10-06T09:53:40.181Z,60.82
2022-10-06T09:55:54.629Z,60.35
2022-10-06T09:57:58.905Z,59.39
2022-10-06T10:00:02.994Z,59.43
2022-10-06T10:02:24.843Z,59.23
2022-10-06T10:04:31.287Z,58.94
2022-10-06T10:06:36.144Z,58.71
2022-10-06T10:08:39.550Z,57.50
2022-10-06T10:10:42.965Z,55.47
2022-10-06T10:12:51.648Z,55.38
2022-10-06T10:14:57.461Z,55.84
2022-10-06T10:17:10.468Z,54.53
2022-10-06T10:19:24.963Z,53.57
2022-10-06T10:21:30.895Z,53.20
2022-10-06T10:23:39.290Z,53.34
2022-10-06T10:26:09.048Z,53.01
2022-10-06T10:28:24.694Z,53.16
2022-10-06T10:30:28.460Z,52.71
2022-10-06T10:32:46.472Z,52.77
2022-10-06T10:35:00.762Z,51.33
2022-10-06T10:37:10.414Z,50.61
2022-10-06T10:39:21.903Z,49.22
2022-10-06T10:41:28.411Z,47.22
2022-10-06T10:43:35.041Z,48.08
2022-10-06T10:45:44.850Z,48.91
2022-10-06T10:47:50.167Z,48.02
2022-10-06T10:50:00.092Z,46.14
2022-10-06T10:52:10.572Z,46.29
2022-10-06T10:54:19.717Z,46.39
2022-10-06T10:56:26.808Z,45.47
2022-10-06T10:58:34.872Z,46.71
2022-10-06T11:00:44.013Z,46.48
2022-10-06T11:02:47.940Z,45.46
2022-10-06T11:04:53.921Z,45.70
2022-10-06T11:07:11.048Z,46.01
2022-10-06T11:09:19.209Z,44.49
2022-10-06T11:11:36.678Z,45.00
2022-10-06T11:13:44.945Z,44.30
2022-10-06T11:16:11.982Z,43.96
2022-10-06T11:18:25.739Z,42.85
2022-10-06T11:20:45.919Z,44.36
2022-10-06T11:22:57.864Z,43.75
2022-10-06T11:25:13.681Z,43.59
2022-10-06T11:27:27.207Z,42.99
2022-10-06T11:29:40.761Z,42.67
2022-10-06T11:31:54.667Z,43.55
2022-10-06T11:34:01.671Z,42.08
2022-10-06T11:36:09.338Z,41.73
2022-10-06T11:38:23.430Z,41.56
2022-10-06T11:40:42.276Z,41.38
2022-10-06T11:42:51.670Z,41.90
2022-10-06T11:45:00.866Z,41.83
2022-10-06T11:47:09.072Z,41.79
2022-10-06T11:49:39.400Z,41.34
2022-10-06T11:51:42.738Z,40.21
2022-10-06T11:53:46.349Z,40.09
2022-10-06T11:56:40.988Z,39.93
2022-10-06T11:59:13.970Z,39.98
2022-10-06T12:01:51.840Z,40.46
2022-10-06T12:04:12.969Z,41.36
2022-10-06T12:07:06.872Z,40.58
2022-10-06T12:09:52.471Z,41.01
2022-10-06T12:11:58.852Z,40.60
2022-10-06T12:15:06.452Z,40.81
2022-10-06T12:19:08.692Z,40.13
2022-10-06T12:21:23.951Z,39.47
2022-10-06T12:23:42.372Z,38.88
2022-10-06T12:25:54.348Z,39.41
2022-10-06T12:28:10.976Z,38.07
2022-10-06T12:30:24.713Z,37.95
2022-10-06T12:32:49.468Z,37.82
2022-10-06T12:35:18.031Z,37.38
2022-10-06T12:37:41.212Z,37.90
2022-10-06T12:39:44.583Z,37.27
2022-10-06T12:41:58.818Z,37.09
2022-10-06T12:44:05.320Z,37.43
2022-10-06T12:46:16.584Z,38.01
2022-10-06T12:48:24.737Z,37.98
2022-10-06T12:50:29.110Z,38.25
2022-10-06T12:52:48.054Z,37.99
2022-10-06T12:55:04.176Z,37.72
2022-10-06T12:57:18.102Z,37.12
2022-10-06T12:59:26.967Z,37.08
2022-10-06T13:01:31.102Z,37.39
2022-10-06T13:03:35.703Z,37.26
2022-10-06T13:05:39.081Z,36.70
2022-10-06T13:07:57.527Z,37.39
2022-10-06T13:10:19.117Z,35.63
2022-10-06T13:12:31.110Z,35.79
2022-10-06T13:14:36.080Z,34.75
2022-10-06T13:16:41.909Z,35.64
2022-10-06T13:18:45.510Z,35.97
2022-10-06T13:20:50.522Z,33.86
2022-10-06T13:23:03.160Z,34.31
2022-10-06T13:25:12.917Z,33.77
2022-10-06T13:27:18.637Z,32.85
2022-10-06T13:29:25.300Z,33.78
2022-10-06T13:31:31.459Z,34.55
2022-10-06T13:33:40.376Z,34.86
2022-10-06T13:35:44.057Z,35.63
2022-10-06T13:37:47.762Z,35.23
2022-10-06T13:39:51.093Z,34.63
2022-10-06T13:41:57.212Z,36.38
2022-10-06T13:44:03.282Z,36.39
2022-10-06T13:46:09.568Z,35.99
2022-10-06T13:48:18.029Z,35.24
2022-10-06T13:50:21.560Z,35.01
2022-10-06T13:52:34.077Z,34.31
2022-10-06T13:54:41.842Z,34.46
2022-10-06T13:56:45.547Z,34.01
2022-10-06T13:58:48.906Z,33.77
2022-10-06T14:00:56.248Z,31.95
2022-10-06T14:03:10.591Z,32.31
2022-10-06T14:05:31.436Z,32.80
2022-10-06T14:07:34.842Z,32.24
2022-10-06T14:09:38.226Z,32.20
2022-10-06T14:11:43.436Z,31.86
2022-10-06T14:13:54.370Z,32.13
2022-10-06T14:16:00.029Z,31.62
2022-10-06T14:18:06.080Z,33.08
2022-10-06T14:20:43.399Z,32.17
2022-10-06T14:22:46.759Z,32.05
2022-10-06T14:24:52.283Z,32.14
2022-10-06T14:27:01.898Z,32.48
2022-10-06T14:29:05.665Z,31.66
2022-10-06T14:31:14.428Z,32.71
2022-10-06T14:33:18.303Z,31.73
2022-10-06T14:35:21.584Z,32.69
2022-10-06T14:37:26.497Z,32.44
2022-10-06T14:39:29.788Z,32.44
2022-10-06T14:41:33.705Z,32.61
2022-10-06T14:43:36.997Z,31.88
2022-10-06T14:45:43.789Z,31.58
2022-10-06T14:47:47.556Z,31.69
2022-10-06T14:49:51.364Z,31.21
2022-10-06T14:51:55.828Z,30.96
2022-10-06T14:54:01.253Z,31.02
2022-10-06T14:56:06.395Z,31.68
2022-10-06T14:58:09.783Z,31.62
2022-10-06T15:00:14.547Z,32.09
2022-10-06T15:02:20.355Z,31.84
2022-10-06T15:04:26.501Z,32.14
2022-10-06T15:06:47.877Z,31.76
2022-10-06T15:08:52.023Z,31.46
2022-10-06T15:10:56.689Z,32.18
2022-10-06T15:13:00.661Z,32.40
2022-10-06T15:15:06.263Z,32.25
2022-10-06T15:17:09.616Z,32.90
2022-10-06T15:19:13.672Z,33.75
2022-10-06T15:21:18.460Z,33.55
2022-10-06T15:23:21.816Z,33.24
2022-10-06T15:25:42.643Z,33.84
2022-10-06T15:28:05.037Z,33.92
2022-10-06T15:30:11.204Z,34.02
2022-10-06T15:32:15.526Z,35.05
2022-10-06T15:34:20.528Z,34.79
2022-10-06T15:36:25.573Z,34.61
2022-10-06T15:38:28.876Z,35.72
2022-10-06T15:40:32.184Z,36.08
2022-10-06T15:42:35.535Z,35.93
2022-10-06T15:44:40.349Z,36.30
2022-10-06T15:46:45.596Z,37.53
2022-10-06T15:48:49.018Z,37.62
2022-10-06T15:50:52.370Z,37.55
2022-10-06T15:52:55.840Z,38.52
2022-10-06T15:54:59.155Z,38.68
2022-10-06T15:57:05.598Z,39.40
2022-10-06T15:59:09.828Z,39.22
2022-10-06T16:01:38.773Z,39.99
2022-10-06T16:03:44.255Z,39.42
2022-10-06T16:05:51.602Z,39.31
2022-10-06T16:07:54.859Z,39.70
2022-10-06T16:09:58.261Z,39.69
2022-10-06T16:12:03.475Z,39.90
2022-10-06T16:14:07.538Z,39.58
2022-10-06T16:16:11.194Z,39.81
2022-10-06T16:18:15.979Z,39.26
2022-10-06T16:20:19.714Z,38.96
2022-10-06T16:22:23.062Z,39.47
2022-10-06T16:24:26.445Z,39.56
2022-10-06T16:26:29.917Z,39.15
2022-10-06T16:28:33.980Z,39.23
2022-10-06T16:30:37.361Z,39.40
2022-10-06T16:32:41.007Z,39.56
2022-10-06T16:34:50.262Z,39.70
2022-10-06T16:36:53.652Z,39.87
2022-10-06T16:38:57.408Z,40.33
2022-10-06T16:41:02.549Z,39.74
2022-10-06T16:43:05.843Z,40.20
2022-10-06T16:45:09.797Z,40.50
2022-10-06T16:47:13.092Z,40.08
2022-10-06T16:49:16.475Z,40.46
2022-10-06T16:51:23.339Z,40.47
2022-10-06T16:53:26.882Z,40.81
2022-10-06T16:55:30.308Z,41.00
2022-10-06T16:57:33.615Z,41.30
2022-10-06T16:59:37.162Z,41.64
2022-10-06T17:01:40.583Z,41.98
2022-10-06T17:03:44.283Z,42.09
2022-10-06T17:05:47.704Z,42.18
2022-10-06T17:07:56.949Z,42.12
2022-10-06T17:10:22.140Z,42.62
2022-10-06T17:12:25.670Z,42.99
2022-10-06T17:14:30.930Z,43.14
2022-10-06T17:16:36.957Z,43.19
2022-10-06T17:18:40.456Z,43.48
2022-10-06T17:20:43.824Z,43.73
2022-10-06T17:22:47.327Z,43.94
2022-10-06T17:24:52.035Z,43.90
2022-10-06T17:26:55.828Z,44.03
2022-10-06T17:29:00.996Z,44.12
2022-10-06T17:31:04.343Z,44.31
2022-10-06T17:33:07.769Z,44.45
2022-10-06T17:35:11.151Z,44.80
2022-10-06T17:37:14.490Z,45.26
2022-10-06T17:39:19.315Z,45.56
2022-10-06T17:41:29.676Z,45.59
2022-10-06T17:43:36.290Z,45.73
2022-10-06T17:45:40.156Z,46.48
2022-10-06T17:47:43.693Z,46.82
2022-10-06T17:49:47.079Z,47.33
2022-10-06T17:51:51.544Z,47.56
2022-10-06T17:53:57.203Z,47.83
2022-10-06T17:56:06.639Z,47.93
2022-10-06T17:58:15.193Z,48.50
2022-10-06T18:00:21.208Z,48.81
2022-10-06T18:02:24.599Z,48.93
2022-10-06T18:04:28.746Z,49.47
2022-10-06T18:06:35.304Z,50.16
2022-10-06T18:08:39.526Z,50.51
2022-10-06T18:11:06.032Z,50.86
2022-10-06T18:13:10.715Z,51.71
2022-10-06T18:15:14.441Z,51.52
2022-10-06T18:17:20.161Z,52.24
2022-10-06T18:19:26.328Z,52.87
2022-10-06T18:21:37.273Z,53.09
2022-10-06T18:23:42.692Z,53.55
2022-10-06T18:25:46.675Z,53.48
2022-10-06T18:27:49.967Z,54.00
2022-10-06T18:29:54.687Z,54.92
2022-10-06T18:32:09.397Z,54.61
2022-10-06T18:36:42.945Z,55.07
2022-10-06T18:38:46.988Z,55.23
2022-10-06T18:40:58.019Z,55.27
2022-10-06T18:43:01.571Z,54.83
2022-10-06T18:45:25.380Z,55.72
2022-10-06T18:47:46.658Z,55.92
2022-10-06T18:49:50.234Z,56.26
2022-10-06T18:51:58.354Z,56.50
2022-10-06T18:54:04.313Z,56.53
2022-10-06T18:56:07.811Z,56.93
2022-10-06T18:58:11.119Z,56.91
2022-10-06T19:00:17.362Z,57.27
2022-10-06T19:02:20.799Z,57.33
2022-10-06T19:04:25.088Z,57.40
2022-10-06T19:06:30.092Z,57.45
2022-10-06T19:08:34.072Z,57.59
2022-10-06T19:10:57.368Z,57.07
2022-10-06T19:13:01.101Z,58.15
2022-10-06T19:15:05.231Z,57.86
2022-10-06T19:17:13.098Z,57.89
2022-10-06T19:19:19.312Z,58.61
2022-10-06T19:21:22.762Z,58.58
2022-10-06T19:23:26.096Z,58.75
2022-10-06T19:25:29.409Z,59.38
2022-10-06T19:27:33.288Z,59.58
2022-10-06T19:29:37.781Z,59.58
2022-10-06T19:31:43.492Z,59.44
2022-10-06T19:33:49.114Z,59.77
2022-10-06T19:35:53.368Z,59.45
2022-10-06T19:37:56.747Z,60.30
2022-10-06T19:40:01.379Z,60.16
2022-10-06T19:42:22.195Z,59.95
2022-10-06T19:44:25.972Z,60.29
2022-10-06T19:46:29.539Z,60.11
2022-10-06T19:48:33.078Z,60.27
2022-10-06T19:50:38.908Z,60.13
2022-10-06T19:52:42.950Z,60.94
2022-10-06T19:54:46.326Z,60.48
2022-10-06T19:56:49.935Z,60.58
2022-10-06T19:58:53.648Z,60.97
2022-10-06T20:00:57.098Z,61.12
2022-10-06T20:03:00.761Z,61.03
2022-10-06T20:05:04.200Z,60.72
2022-10-06T20:07:09.303Z,61.41
2022-10-06T20:09:14.594Z,61.46
2022-10-06T20:11:20.857Z,62.09
2022-10-06T20:13:24.232Z,61.39
2022-10-06T20:15:27.685Z,61.25
2022-10-06T20:17:31.029Z,62.56
2022-10-06T20:19:35.264Z,62.17
2022-10-06T20:21:39.845Z,63.21
2022-10-06T20:23:48.111Z,63.78
2022-10-06T20:25:51.673Z,64.11
2022-10-06T20:27:55.002Z,64.17
2022-10-06T20:29:59.010Z,64.96
2022-10-06T20:32:02.335Z,64.54
2022-10-06T20:34:07.781Z,65.23
2022-10-06T20:36:11.482Z,64.46
2022-10-06T20:38:14.816Z,64.96
2022-10-06T20:40:37.115Z,65.25
2022-10-06T20:42:44.709Z,65.03
2022-10-06T20:44:48.652Z,64.74
2022-10-06T20:46:52.311Z,65.33
2022-10-06T20:48:55.700Z,65.12
2022-10-06T20:50:59.369Z,64.73
2022-10-06T20:53:02.732Z,64.95
2022-10-06T20:55:07.507Z,64.81
2022-10-06T20:57:12.984Z,64.52
2022-10-06T20:59:16.419Z,64.47
2022-10-06T21:01:22.095Z,65.09
2022-10-06T21:03:25.484Z,64.53
2022-10-06T21:05:32.986Z,65.00
2022-10-06T21:07:42.346Z,64.84
2022-10-06T21:09:51.233Z,65.14
2022-10-06T21:11:56.328Z,65.43
2022-10-06T21:14:01.819Z,64.98
2022-10-06T21:16:05.985Z,66.40
2022-10-06T21:18:09.350Z,67.77
2022-10-06T21:20:12.698Z,67.64
2022-10-06T21:22:16.392Z,68.33
2022-10-06T21:24:20.367Z,68.03
2022-10-06T21:26:27.013Z,67.63
2022-10-06T21:28:30.557Z,67.71
2022-10-06T21:30:35.729Z,68.65
2022-10-06T21:32:39.210Z,68.33
2022-10-06T21:34:42.502Z,67.77
2022-10-06T21:36:45.869Z,67.10
2022-10-06T21:38:51.214Z,67.71
2022-10-06T21:40:54.613Z,67.94
2022-10-06T21:42:57.963Z,68.35
2022-10-06T21:45:01.338Z,69.24
2022-10-06T21:47:06.302Z,69.00
2022-10-06T21:49:12.055Z,68.43
2022-10-06T21:51:15.394Z,69.29
2022-10-06T21:53:18.895Z,69.22
2022-10-06T21:55:22.224Z,69.82
2022-10-06T21:57:25.521Z,68.71
2022-10-06T21:59:28.840Z,68.55
2022-10-06T22:01:34.649Z,69.32
2022-10-06T22:03:39.987Z,69.79
2022-10-06T22:05:43.283Z,69.93
2022-10-06T22:07:46.824Z,69.12
2022-10-06T22:09:50.299Z,68.33
2022-10-06T22:11:53.619Z,68.77
2022-10-06T22:13:59.260Z,69.46
2022-10-06T22:16:03.883Z,68.51
2022-10-06T22:18:07.218Z,69.26
2022-10-06T22:20:12.019Z,69.11
2022-10-06T22:22:15.406Z,69.95
2022-10-06T22:24:20.698Z,69.24
2022-10-06T22:26:25.067Z,69.42
2022-10-06T22:28:28.587Z,69.79
2022-10-06T22:30:31.982Z,70.66
2022-10-06T22:32:35.246Z,71.00
2022-10-06T22:34:38.639Z,70.75
2022-10-06T22:36:43.368Z,70.49
2022-10-06T22:38:46.825Z,70.83
2022-10-06T22:40:50.127Z,72.34
2022-10-06T22:42:53.436Z,70.89
2022-10-06T22:44:56.738Z,71.09
2022-10-06T22:47:00.270Z,70.26
2022-10-06T22:49:04.552Z,70.28
2022-10-06T22:51:08.065Z,69.90
2022-10-06T22:53:12.697Z,69.93
2022-10-06T22:55:16.167Z,69.71
2022-10-06T22:57:19.494Z,69.18
2022-10-06T22:59:22.784Z,69.94
2022-10-06T23:01:26.958Z,69.61
2022-10-06T23:03:30.278Z,69.57
2022-10-06T23:05:33.914Z,69.62
2022-10-06T23:07:37.184Z,68.88
2022-10-06T23:09:42.102Z,69.08
2022-10-06T23:11:45.428Z,69.28
2022-10-06T23:13:50.243Z,68.62
2022-10-06T23:16:06.494Z,69.96
2022-10-06T23:18:10.814Z,69.15
2022-10-06T23:20:14.664Z,70.20
2022-10-06T23:22:17.966Z,69.99
2022-10-06T23:24:21.288Z,69.70
2022-10-06T23:26:26.113Z,70.15
2022-10-06T23:28:29.470Z,69.91
2022-10-06T23:30:35.466Z,69.81
2022-10-06T23:32:40.631Z,69.48
2022-10-06T23:34:43.964Z,70.03
2022-10-06T23:36:47.244Z,69.29
2022-10-06T23:38:50.654Z,69.46
2022-10-06T23:40:54.025Z,69.28
2022-10-06T23:42:59.064Z,69.88
2022-10-06T23:45:02.419Z,70.37
2022-10-06T23:47:06.187Z,70.13
2022-10-06T23:49:09.530Z,70.85
2022-10-06T23:51:15.138Z,70.98
2022-10-06T23:53:18.441Z,70.71
2022-10-06T23:55:21.794Z,70.64
2022-10-06T23:57:25.182Z,70.24
2022-10-06T23:59:29.920Z,70.10
